sensor_id;sensor_type;location;lat;lon;timestamp;temperature;humidity
64226;DHT22;50545;56.064;26.178;2024-01-06T00:01:13;-13.80;99.90
64226;DHT22;50545;56.064;26.178;2024-01-06T00:03:42;-13.90;99.90
64226;DHT22;50545;56.064;26.178;2024-01-06T00:06:14;-13.90;99.90
64226;DHT22;50545;56.064;26.178;2024-01-06T00:08:42;-14.00;99.90
64226;DHT22;50545;56.064;26.178;2024-01-06T00:11:10;-14.00;99.90
64226;DHT22;50545;56.064;26.178;2024-01-06T00:13:37;-14.10;99.90
64226;DHT22;50545;56.064;26.178;2024-01-06T00:16:05;-14.10;99.90
64226;DHT22;50545;56.064;26.178;2024-01-06T00:18:32;-14.10;99.90
64226;DHT22;50545;56.064;26.178;2024-01-06T00:21:00;-14.20;99.90
64226;DHT22;50545;56.064;26.178;2024-01-06T00:23:28;-14.20;99.90
64226;DHT22;50545;56.064;26.178;2024-01-06T00:25:55;-14.20;99.90
64226;DHT22;50545;56.064;26.178;2024-01-06T00:28:23;-14.20;99.90
64226;DHT22;50545;56.064;26.178;2024-01-06T00:30:50;-14.20;99.90
64226;DHT22;50545;56.064;26.178;2024-01-06T00:33:18;-14.10;99.90
64226;DHT22;50545;56.064;26.178;2024-01-06T00:35:45;-14.10;99.90
64226;DHT22;50545;56.064;26.178;2024-01-06T00:38:13;-14.00;99.90
64226;DHT22;50545;56.064;26.178;2024-01-06T00:40:40;-14.00;99.90
64226;DHT22;50545;56.064;26.178;2024-01-06T00:43:07;-14.00;99.90
64226;DHT22;50545;56.064;26.178;2024-01-06T00:45:35;-13.90;99.90
64226;DHT22;50545;56.064;26.178;2024-01-06T00:48:03;-13.90;99.90
64226;DHT22;50545;56.064;26.178;2024-01-06T00:50:30;-13.90;99.90
64226;DHT22;50545;56.064;26.178;2024-01-06T00:52:58;-13.90;99.90
64226;DHT22;50545;56.064;26.178;2024-01-06T00:55:25;-13.90;99.90
64226;DHT22;50545;56.064;26.178;2024-01-06T00:57:53;-13.90;99.90
64226;DHT22;50545;56.064;26.178;2024-01-06T01:00:20;-13.80;99.90
64226;DHT22;50545;56.064;26.178;2024-01-06T01:02:48;-13.80;99.90
64226;DHT22;50545;56.064;26.178;2024-01-06T01:05:15;-13.80;99.90
64226;DHT22;50545;56.064;26.178;2024-01-06T01:07:43;-13.80;99.90
64226;DHT22;50545;56.064;26.178;2024-01-06T01:10:10;-13.80;99.90
64226;DHT22;50545;56.064;26.178;2024-01-06T01:12:38;-13.80;99.90
64226;DHT22;50545;56.064;26.178;2024-01-06T01:15:07;-13.80;99.90
64226;DHT22;50545;56.064;26.178;2024-01-06T01:17:34;-13.80;99.90
64226;DHT22;50545;56.064;26.178;2024-01-06T01:20:02;-13.80;99.90
64226;DHT22;50545;56.064;26.178;2024-01-06T01:22:29;-13.80;99.90
64226;DHT22;50545;56.064;26.178;2024-01-06T01:24:57;-13.80;99.90
64226;DHT22;50545;56.064;26.178;2024-01-06T01:27:24;-13.70;99.90
64226;DHT22;50545;56.064;26.178;2024-01-06T01:29:52;-13.70;99.90
64226;DHT22;50545;56.064;26.178;2024-01-06T01:32:22;-13.70;99.90
64226;DHT22;50545;56.064;26.178;2024-01-06T01:34:50;-13.70;99.90
64226;DHT22;50545;56.064;26.178;2024-01-06T01:37:17;-13.70;99.90
64226;DHT22;50545;56.064;26.178;2024-01-06T01:39:45;-13.60;99.90
64226;DHT22;50545;56.064;26.178;2024-01-06T01:42:12;-13.60;99.90
64226;DHT22;50545;56.064;26.178;2024-01-06T01:44:40;-13.60;99.90
64226;DHT22;50545;56.064;26.178;2024-01-06T01:47:07;-13.60;99.90
64226;DHT22;50545;56.064;26.178;2024-01-06T01:49:35;-13.60;99.90
64226;DHT22;50545;56.064;26.178;2024-01-06T01:52:04;-13.50;99.90
64226;DHT22;50545;56.064;26.178;2024-01-06T01:54:31;-13.50;99.90
64226;DHT22;50545;56.064;26.178;2024-01-06T01:56:59;-13.50;99.90
64226;DHT22;50545;56.064;26.178;2024-01-06T01:59:26;-13.50;99.90
64226;DHT22;50545;56.064;26.178;2024-01-06T02:01:55;-13.50;99.90
64226;DHT22;50545;56.064;26.178;2024-01-06T02:04:23;-13.50;99.90
64226;DHT22;50545;56.064;26.178;2024-01-06T02:06:50;-13.40;99.90
64226;DHT22;50545;56.064;26.178;2024-01-06T02:09:18;-13.40;99.90
64226;DHT22;50545;56.064;26.178;2024-01-06T02:11:45;-13.40;99.90
64226;DHT22;50545;56.064;26.178;2024-01-06T02:14:13;-13.40;99.90
64226;DHT22;50545;56.064;26.178;2024-01-06T02:16:40;-13.30;99.90
64226;DHT22;50545;56.064;26.178;2024-01-06T02:19:10;-13.30;99.90
64226;DHT22;50545;56.064;26.178;2024-01-06T02:21:42;-13.30;99.90
64226;DHT22;50545;56.064;26.178;2024-01-06T02:24:10;-13.30;99.90
64226;DHT22;50545;56.064;26.178;2024-01-06T02:26:38;-13.30;99.90
64226;DHT22;50545;56.064;26.178;2024-01-06T02:29:05;-13.30;99.90
64226;DHT22;50545;56.064;26.178;2024-01-06T02:31:33;-13.30;99.90
64226;DHT22;50545;56.064;26.178;2024-01-06T02:34:00;-13.30;99.90
64226;DHT22;50545;56.064;26.178;2024-01-06T02:36:28;-13.30;99.90
64226;DHT22;50545;56.064;26.178;2024-01-06T02:38:55;-13.20;99.90
64226;DHT22;50545;56.064;26.178;2024-01-06T02:41:23;-13.20;99.90
64226;DHT22;50545;56.064;26.178;2024-01-06T02:43:50;-13.20;99.90
64226;DHT22;50545;56.064;26.178;2024-01-06T02:46:18;-13.20;99.90
64226;DHT22;50545;56.064;26.178;2024-01-06T02:48:45;-13.20;99.90
64226;DHT22;50545;56.064;26.178;2024-01-06T02:51:13;-13.20;99.90
64226;DHT22;50545;56.064;26.178;2024-01-06T02:53:40;-13.20;99.90
64226;DHT22;50545;56.064;26.178;2024-01-06T02:56:11;-13.10;99.90
64226;DHT22;50545;56.064;26.178;2024-01-06T02:58:39;-13.10;99.90
64226;DHT22;50545;56.064;26.178;2024-01-06T03:01:07;-13.10;99.90
64226;DHT22;50545;56.064;26.178;2024-01-06T03:03:35;-13.10;99.90
64226;DHT22;50545;56.064;26.178;2024-01-06T03:06:03;-13.10;99.90
64226;DHT22;50545;56.064;26.178;2024-01-06T03:08:31;-13.10;99.90
64226;DHT22;50545;56.064;26.178;2024-01-06T03:10:58;-13.10;99.90
64226;DHT22;50545;56.064;26.178;2024-01-06T03:13:26;-13.10;99.90
64226;DHT22;50545;56.064;26.178;2024-01-06T03:15:53;-13.10;99.90
64226;DHT22;50545;56.064;26.178;2024-01-06T03:18:21;-13.00;99.90
64226;DHT22;50545;56.064;26.178;2024-01-06T03:20:49;-13.00;99.90
64226;DHT22;50545;56.064;26.178;2024-01-06T03:23:16;-13.00;99.90
64226;DHT22;50545;56.064;26.178;2024-01-06T03:25:44;-13.00;99.90
64226;DHT22;50545;56.064;26.178;2024-01-06T03:28:11;-13.00;99.90
64226;DHT22;50545;56.064;26.178;2024-01-06T03:30:39;-13.00;99.90
64226;DHT22;50545;56.064;26.178;2024-01-06T03:33:07;-13.00;99.90
64226;DHT22;50545;56.064;26.178;2024-01-06T03:35:34;-12.90;99.90
64226;DHT22;50545;56.064;26.178;2024-01-06T03:38:02;-12.90;99.90
64226;DHT22;50545;56.064;26.178;2024-01-06T03:40:30;-12.90;99.90
64226;DHT22;50545;56.064;26.178;2024-01-06T03:42:57;-12.90;99.90
64226;DHT22;50545;56.064;26.178;2024-01-06T03:45:25;-12.90;99.90
64226;DHT22;50545;56.064;26.178;2024-01-06T03:47:52;-12.90;99.90
64226;DHT22;50545;56.064;26.178;2024-01-06T03:50:20;-12.90;99.90
64226;DHT22;50545;56.064;26.178;2024-01-06T03:52:47;-12.90;99.90
64226;DHT22;50545;56.064;26.178;2024-01-06T03:55:16;-12.90;99.90
64226;DHT22;50545;56.064;26.178;2024-01-06T03:57:43;-12.90;99.90
64226;DHT22;50545;56.064;26.178;2024-01-06T04:00:11;-12.90;99.90
64226;DHT22;50545;56.064;26.178;2024-01-06T04:02:38;-12.90;99.90
64226;DHT22;50545;56.064;26.178;2024-01-06T04:05:06;-12.90;99.90
64226;DHT22;50545;56.064;26.178;2024-01-06T04:07:33;-12.90;99.90
64226;DHT22;50545;56.064;26.178;2024-01-06T04:10:01;-12.90;99.90
64226;DHT22;50545;56.064;26.178;2024-01-06T04:12:28;-12.90;99.90
64226;DHT22;50545;56.064;26.178;2024-01-06T04:14:55;-12.90;99.90
64226;DHT22;50545;56.064;26.178;2024-01-06T04:17:23;-12.90;99.90
64226;DHT22;50545;56.064;26.178;2024-01-06T04:19:50;-12.90;99.90
64226;DHT22;50545;56.064;26.178;2024-01-06T04:22:18;-12.80;99.90
64226;DHT22;50545;56.064;26.178;2024-01-06T04:24:45;-12.90;99.90
64226;DHT22;50545;56.064;26.178;2024-01-06T04:27:13;-12.80;99.90
64226;DHT22;50545;56.064;26.178;2024-01-06T04:29:40;-12.80;99.90
64226;DHT22;50545;56.064;26.178;2024-01-06T04:32:07;-12.80;99.90
64226;DHT22;50545;56.064;26.178;2024-01-06T04:34:35;-12.80;99.90
64226;DHT22;50545;56.064;26.178;2024-01-06T04:37:03;-12.90;99.90
64226;DHT22;50545;56.064;26.178;2024-01-06T04:39:31;-12.80;99.90
64226;DHT22;50545;56.064;26.178;2024-01-06T04:42:04;-12.90;99.90
64226;DHT22;50545;56.064;26.178;2024-01-06T04:44:31;-12.80;99.90
64226;DHT22;50545;56.064;26.178;2024-01-06T04:46:58;-12.90;99.90
64226;DHT22;50545;56.064;26.178;2024-01-06T04:49:26;-12.90;99.90
64226;DHT22;50545;56.064;26.178;2024-01-06T04:51:54;-12.90;99.90
64226;DHT22;50545;56.064;26.178;2024-01-06T04:54:21;-12.90;99.90
64226;DHT22;50545;56.064;26.178;2024-01-06T04:56:49;-12.90;99.90
64226;DHT22;50545;56.064;26.178;2024-01-06T04:59:16;-12.90;99.90
64226;DHT22;50545;56.064;26.178;2024-01-06T05:01:44;-12.90;99.90
64226;DHT22;50545;56.064;26.178;2024-01-06T05:04:11;-12.90;99.90
64226;DHT22;50545;56.064;26.178;2024-01-06T05:06:39;-12.90;99.90
64226;DHT22;50545;56.064;26.178;2024-01-06T05:09:06;-12.90;99.90
64226;DHT22;50545;56.064;26.178;2024-01-06T05:11:34;-12.90;99.90
64226;DHT22;50545;56.064;26.178;2024-01-06T05:14:02;-12.90;99.90
64226;DHT22;50545;56.064;26.178;2024-01-06T05:16:31;-12.90;99.90
64226;DHT22;50545;56.064;26.178;2024-01-06T05:18:59;-12.90;99.90
64226;DHT22;50545;56.064;26.178;2024-01-06T05:21:26;-12.90;99.90
64226;DHT22;50545;56.064;26.178;2024-01-06T05:23:54;-12.90;99.90
64226;DHT22;50545;56.064;26.178;2024-01-06T05:26:22;-12.90;99.90
64226;DHT22;50545;56.064;26.178;2024-01-06T05:28:49;-12.90;99.90
64226;DHT22;50545;56.064;26.178;2024-01-06T05:31:17;-12.90;99.90
64226;DHT22;50545;56.064;26.178;2024-01-06T05:33:44;-12.90;99.90
64226;DHT22;50545;56.064;26.178;2024-01-06T05:36:12;-12.90;99.90
64226;DHT22;50545;56.064;26.178;2024-01-06T05:38:39;-12.90;99.90
64226;DHT22;50545;56.064;26.178;2024-01-06T05:41:07;-12.90;99.90
64226;DHT22;50545;56.064;26.178;2024-01-06T05:43:34;-13.00;99.90
64226;DHT22;50545;56.064;26.178;2024-01-06T05:46:02;-13.00;99.90
64226;DHT22;50545;56.064;26.178;2024-01-06T05:48:29;-13.00;99.90
64226;DHT22;50545;56.064;26.178;2024-01-06T05:50:57;-13.00;99.90
64226;DHT22;50545;56.064;26.178;2024-01-06T05:53:25;-13.00;99.90
64226;DHT22;50545;56.064;26.178;2024-01-06T05:55:52;-13.00;99.90
64226;DHT22;50545;56.064;26.178;2024-01-06T05:58:19;-13.10;99.90
64226;DHT22;50545;56.064;26.178;2024-01-06T06:00:47;-13.10;99.90
64226;DHT22;50545;56.064;26.178;2024-01-06T06:03:15;-13.10;99.90
64226;DHT22;50545;56.064;26.178;2024-01-06T06:05:43;-13.10;99.90
64226;DHT22;50545;56.064;26.178;2024-01-06T06:08:12;-13.20;99.90
64226;DHT22;50545;56.064;26.178;2024-01-06T06:10:39;-13.20;99.90
64226;DHT22;50545;56.064;26.178;2024-01-06T06:13:28;-13.20;99.90
64226;DHT22;50545;56.064;26.178;2024-01-06T06:15:55;-13.20;99.90
64226;DHT22;50545;56.064;26.178;2024-01-06T06:18:23;-13.20;99.90
64226;DHT22;50545;56.064;26.178;2024-01-06T06:20:51;-13.20;99.90
64226;DHT22;50545;56.064;26.178;2024-01-06T06:23:18;-13.20;99.90
64226;DHT22;50545;56.064;26.178;2024-01-06T06:25:45;-13.20;99.90
64226;DHT22;50545;56.064;26.178;2024-01-06T06:28:13;-13.20;99.90
64226;DHT22;50545;56.064;26.178;2024-01-06T06:30:40;-13.30;99.90
64226;DHT22;50545;56.064;26.178;2024-01-06T06:33:08;-13.30;99.90
64226;DHT22;50545;56.064;26.178;2024-01-06T06:35:35;-13.30;99.90
64226;DHT22;50545;56.064;26.178;2024-01-06T06:38:03;-13.40;99.90
64226;DHT22;50545;56.064;26.178;2024-01-06T06:40:30;-13.40;99.90
64226;DHT22;50545;56.064;26.178;2024-01-06T06:42:58;-13.40;99.90
64226;DHT22;50545;56.064;26.178;2024-01-06T06:45:25;-13.40;99.90
64226;DHT22;50545;56.064;26.178;2024-01-06T06:47:52;-13.50;99.90
64226;DHT22;50545;56.064;26.178;2024-01-06T06:50:20;-13.50;99.90
64226;DHT22;50545;56.064;26.178;2024-01-06T06:52:48;-13.60;99.90
64226;DHT22;50545;56.064;26.178;2024-01-06T06:55:15;-13.70;99.90
64226;DHT22;50545;56.064;26.178;2024-01-06T06:57:43;-13.70;99.90
64226;DHT22;50545;56.064;26.178;2024-01-06T07:00:10;-13.80;99.90
64226;DHT22;50545;56.064;26.178;2024-01-06T07:02:38;-13.90;99.90
64226;DHT22;50545;56.064;26.178;2024-01-06T07:05:06;-14.00;99.90
64226;DHT22;50545;56.064;26.178;2024-01-06T07:07:34;-14.00;99.90
64226;DHT22;50545;56.064;26.178;2024-01-06T07:10:02;-14.00;99.90
64226;DHT22;50545;56.064;26.178;2024-01-06T07:12:32;-14.00;99.90
64226;DHT22;50545;56.064;26.178;2024-01-06T07:14:59;-14.00;99.90
64226;DHT22;50545;56.064;26.178;2024-01-06T07:17:29;-14.00;99.90
64226;DHT22;50545;56.064;26.178;2024-01-06T07:19:57;-13.90;99.90
64226;DHT22;50545;56.064;26.178;2024-01-06T07:22:25;-13.90;99.90
64226;DHT22;50545;56.064;26.178;2024-01-06T07:24:52;-13.90;99.90
64226;DHT22;50545;56.064;26.178;2024-01-06T07:27:20;-13.80;99.90
64226;DHT22;50545;56.064;26.178;2024-01-06T07:29:47;-13.80;99.90
64226;DHT22;50545;56.064;26.178;2024-01-06T07:32:15;-13.70;99.90
64226;DHT22;50545;56.064;26.178;2024-01-06T07:34:43;-13.70;99.90
64226;DHT22;50545;56.064;26.178;2024-01-06T07:37:11;-13.60;99.90
64226;DHT22;50545;56.064;26.178;2024-01-06T07:39:38;-13.60;99.90
64226;DHT22;50545;56.064;26.178;2024-01-06T07:42:06;-13.60;99.90
64226;DHT22;50545;56.064;26.178;2024-01-06T07:44:33;-13.60;99.90
64226;DHT22;50545;56.064;26.178;2024-01-06T07:47:01;-13.50;99.90
64226;DHT22;50545;56.064;26.178;2024-01-06T07:49:29;-13.50;99.90
64226;DHT22;50545;56.064;26.178;2024-01-06T07:51:56;-13.50;99.90
64226;DHT22;50545;56.064;26.178;2024-01-06T07:54:24;-13.40;99.90
64226;DHT22;50545;56.064;26.178;2024-01-06T07:56:51;-13.40;99.90
64226;DHT22;50545;56.064;26.178;2024-01-06T07:59:19;-13.30;99.90
64226;DHT22;50545;56.064;26.178;2024-01-06T08:01:46;-13.30;99.90
64226;DHT22;50545;56.064;26.178;2024-01-06T08:04:14;-13.30;99.90
64226;DHT22;50545;56.064;26.178;2024-01-06T08:06:42;-13.20;99.90
64226;DHT22;50545;56.064;26.178;2024-01-06T08:09:09;-13.10;99.90
64226;DHT22;50545;56.064;26.178;2024-01-06T08:11:37;-13.10;99.90
64226;DHT22;50545;56.064;26.178;2024-01-06T08:14:04;-13.00;99.90
64226;DHT22;50545;56.064;26.178;2024-01-06T08:16:32;-13.00;99.90
64226;DHT22;50545;56.064;26.178;2024-01-06T08:18:59;-13.00;99.90
64226;DHT22;50545;56.064;26.178;2024-01-06T08:21:27;-13.10;99.90
64226;DHT22;50545;56.064;26.178;2024-01-06T08:23:55;-13.10;99.90
64226;DHT22;50545;56.064;26.178;2024-01-06T08:26:23;-13.20;99.90
64226;DHT22;50545;56.064;26.178;2024-01-06T08:28:50;-13.30;99.90
64226;DHT22;50545;56.064;26.178;2024-01-06T08:31:18;-13.30;99.90
64226;DHT22;50545;56.064;26.178;2024-01-06T08:33:46;-13.40;99.90
64226;DHT22;50545;56.064;26.178;2024-01-06T08:36:13;-13.50;99.90
64226;DHT22;50545;56.064;26.178;2024-01-06T08:38:41;-13.50;99.90
64226;DHT22;50545;56.064;26.178;2024-01-06T08:41:09;-13.60;99.90
64226;DHT22;50545;56.064;26.178;2024-01-06T08:43:36;-13.60;99.90
64226;DHT22;50545;56.064;26.178;2024-01-06T08:46:04;-13.60;99.90
64226;DHT22;50545;56.064;26.178;2024-01-06T08:48:33;-13.60;99.90
64226;DHT22;50545;56.064;26.178;2024-01-06T08:51:02;-13.60;99.90
64226;DHT22;50545;56.064;26.178;2024-01-06T08:53:29;-13.60;99.90
64226;DHT22;50545;56.064;26.178;2024-01-06T08:55:57;-13.70;99.90
64226;DHT22;50545;56.064;26.178;2024-01-06T08:58:24;-13.70;99.90
64226;DHT22;50545;56.064;26.178;2024-01-06T09:00:52;-13.70;99.90
64226;DHT22;50545;56.064;26.178;2024-01-06T09:03:20;-13.70;99.90
64226;DHT22;50545;56.064;26.178;2024-01-06T09:05:56;-13.70;99.90
64226;DHT22;50545;56.064;26.178;2024-01-06T09:08:24;-13.60;99.90
64226;DHT22;50545;56.064;26.178;2024-01-06T09:10:51;-13.60;99.90
64226;DHT22;50545;56.064;26.178;2024-01-06T09:13:23;-13.60;99.90
64226;DHT22;50545;56.064;26.178;2024-01-06T09:15:51;-13.60;99.90
64226;DHT22;50545;56.064;26.178;2024-01-06T09:18:19;-13.60;99.90
64226;DHT22;50545;56.064;26.178;2024-01-06T09:20:47;-13.50;99.90
64226;DHT22;50545;56.064;26.178;2024-01-06T09:23:17;-13.60;99.90
64226;DHT22;50545;56.064;26.178;2024-01-06T09:25:48;-13.50;99.90
64226;DHT22;50545;56.064;26.178;2024-01-06T09:28:19;-13.50;99.90
64226;DHT22;50545;56.064;26.178;2024-01-06T09:30:48;-13.50;99.90
64226;DHT22;50545;56.064;26.178;2024-01-06T09:33:16;-13.50;99.90
64226;DHT22;50545;56.064;26.178;2024-01-06T09:35:45;-13.50;99.90
64226;DHT22;50545;56.064;26.178;2024-01-06T09:38:12;-13.50;99.90
64226;DHT22;50545;56.064;26.178;2024-01-06T09:40:44;-13.50;99.90
64226;DHT22;50545;56.064;26.178;2024-01-06T09:43:12;-13.40;99.90
64226;DHT22;50545;56.064;26.178;2024-01-06T09:45:39;-13.40;99.90
64226;DHT22;50545;56.064;26.178;2024-01-06T09:48:13;-13.40;99.90
64226;DHT22;50545;56.064;26.178;2024-01-06T09:50:43;-13.40;99.90
64226;DHT22;50545;56.064;26.178;2024-01-06T09:53:12;-13.30;99.90
64226;DHT22;50545;56.064;26.178;2024-01-06T09:55:40;-13.30;99.90
64226;DHT22;50545;56.064;26.178;2024-01-06T09:58:08;-13.30;99.90
64226;DHT22;50545;56.064;26.178;2024-01-06T10:00:37;-13.30;99.90
64226;DHT22;50545;56.064;26.178;2024-01-06T10:03:05;-13.30;99.90
64226;DHT22;50545;56.064;26.178;2024-01-06T10:05:34;-13.30;99.90
64226;DHT22;50545;56.064;26.178;2024-01-06T10:08:03;-13.30;99.90
64226;DHT22;50545;56.064;26.178;2024-01-06T10:10:33;-13.30;99.90
64226;DHT22;50545;56.064;26.178;2024-01-06T10:13:01;-13.20;99.90
64226;DHT22;50545;56.064;26.178;2024-01-06T10:15:29;-13.20;99.90
64226;DHT22;50545;56.064;26.178;2024-01-06T10:17:57;-13.10;99.90
64226;DHT22;50545;56.064;26.178;2024-01-06T10:20:26;-13.10;99.90
64226;DHT22;50545;56.064;26.178;2024-01-06T10:22:54;-13.10;99.90
64226;DHT22;50545;56.064;26.178;2024-01-06T10:25:23;-13.10;99.90
64226;DHT22;50545;56.064;26.178;2024-01-06T10:27:52;-13.00;99.90
64226;DHT22;50545;56.064;26.178;2024-01-06T10:30:21;-13.10;99.90
64226;DHT22;50545;56.064;26.178;2024-01-06T10:32:49;-13.20;99.90
64226;DHT22;50545;56.064;26.178;2024-01-06T10:35:18;-13.20;99.90
64226;DHT22;50545;56.064;26.178;2024-01-06T10:37:47;-13.30;99.90
64226;DHT22;50545;56.064;26.178;2024-01-06T10:40:16;-13.30;99.90
64226;DHT22;50545;56.064;26.178;2024-01-06T10:42:44;-13.30;99.90
64226;DHT22;50545;56.064;26.178;2024-01-06T10:45:13;-13.40;99.90
64226;DHT22;50545;56.064;26.178;2024-01-06T10:47:42;-13.40;99.90
64226;DHT22;50545;56.064;26.178;2024-01-06T10:50:10;-13.40;99.90
64226;DHT22;50545;56.064;26.178;2024-01-06T10:52:39;-13.30;99.90
64226;DHT22;50545;56.064;26.178;2024-01-06T10:55:07;-13.30;99.90
64226;DHT22;50545;56.064;26.178;2024-01-06T10:57:37;-13.30;99.90
64226;DHT22;50545;56.064;26.178;2024-01-06T11:00:05;-13.20;99.90
64226;DHT22;50545;56.064;26.178;2024-01-06T11:02:34;-13.20;99.70
64226;DHT22;50545;56.064;26.178;2024-01-06T11:05:02;-13.20;99.50
64226;DHT22;50545;56.064;26.178;2024-01-06T11:07:30;-13.20;99.50
64226;DHT22;50545;56.064;26.178;2024-01-06T11:12:33;-13.10;99.40
64226;DHT22;50545;56.064;26.178;2024-01-06T11:15:00;-13.10;99.40
64226;DHT22;50545;56.064;26.178;2024-01-06T11:17:50;-13.00;99.30
64226;DHT22;50545;56.064;26.178;2024-01-06T11:20:25;-13.00;99.20
64226;DHT22;50545;56.064;26.178;2024-01-06T11:22:53;-12.90;99.10
64226;DHT22;50545;56.064;26.178;2024-01-06T11:25:22;-12.90;99.00
64226;DHT22;50545;56.064;26.178;2024-01-06T11:27:50;-12.80;99.10
64226;DHT22;50545;56.064;26.178;2024-01-06T11:30:25;-12.70;99.00
64226;DHT22;50545;56.064;26.178;2024-01-06T11:32:56;-12.60;99.00
64226;DHT22;50545;56.064;26.178;2024-01-06T11:35:30;-12.50;99.00
64226;DHT22;50545;56.064;26.178;2024-01-06T11:38:00;-12.50;98.70
64226;DHT22;50545;56.064;26.178;2024-01-06T11:40:35;-12.50;98.50
64226;DHT22;50545;56.064;26.178;2024-01-06T11:43:11;-12.40;98.40
64226;DHT22;50545;56.064;26.178;2024-01-06T11:45:41;-12.40;98.00
64226;DHT22;50545;56.064;26.178;2024-01-06T11:48:11;-12.40;97.90
64226;DHT22;50545;56.064;26.178;2024-01-06T11:50:41;-12.40;97.70
64226;DHT22;50545;56.064;26.178;2024-01-06T11:53:09;-12.40;97.70
64226;DHT22;50545;56.064;26.178;2024-01-06T11:55:39;-12.30;97.80
64226;DHT22;50545;56.064;26.178;2024-01-06T11:58:07;-12.40;97.50
64226;DHT22;50545;56.064;26.178;2024-01-06T12:00:35;-12.40;97.30
64226;DHT22;50545;56.064;26.178;2024-01-06T12:03:08;-12.40;97.20
64226;DHT22;50545;56.064;26.178;2024-01-06T12:05:35;-12.40;97.20
64226;DHT22;50545;56.064;26.178;2024-01-06T12:08:04;-12.40;97.40
64226;DHT22;50545;56.064;26.178;2024-01-06T12:10:35;-12.40;97.70
64226;DHT22;50545;56.064;26.178;2024-01-06T12:13:07;-12.30;97.30
64226;DHT22;50545;56.064;26.178;2024-01-06T12:15:40;-12.40;97.00
64226;DHT22;50545;56.064;26.178;2024-01-06T12:18:08;-12.40;96.80
64226;DHT22;50545;56.064;26.178;2024-01-06T12:20:36;-12.50;96.90
64226;DHT22;50545;56.064;26.178;2024-01-06T12:23:04;-12.60;96.70
64226;DHT22;50545;56.064;26.178;2024-01-06T12:25:34;-12.60;96.50
64226;DHT22;50545;56.064;26.178;2024-01-06T12:28:07;-12.70;96.60
64226;DHT22;50545;56.064;26.178;2024-01-06T12:30:35;-12.70;96.80
64226;DHT22;50545;56.064;26.178;2024-01-06T12:33:04;-12.70;96.70
64226;DHT22;50545;56.064;26.178;2024-01-06T12:35:32;-12.70;96.70
64226;DHT22;50545;56.064;26.178;2024-01-06T12:38:01;-12.80;96.60
64226;DHT22;50545;56.064;26.178;2024-01-06T12:40:28;-12.80;96.70
64226;DHT22;50545;56.064;26.178;2024-01-06T12:42:56;-12.80;96.60
64226;DHT22;50545;56.064;26.178;2024-01-06T12:45:24;-12.90;96.60
64226;DHT22;50545;56.064;26.178;2024-01-06T12:47:51;-12.90;96.50
64226;DHT22;50545;56.064;26.178;2024-01-06T12:50:19;-13.00;96.40
64226;DHT22;50545;56.064;26.178;2024-01-06T12:52:46;-13.20;96.80
64226;DHT22;50545;56.064;26.178;2024-01-06T12:55:15;-13.30;96.90
64226;DHT22;50545;56.064;26.178;2024-01-06T12:57:43;-13.30;97.10
64226;DHT22;50545;56.064;26.178;2024-01-06T13:00:12;-13.30;97.20
64226;DHT22;50545;56.064;26.178;2024-01-06T13:02:40;-13.40;97.30
64226;DHT22;50545;56.064;26.178;2024-01-06T13:05:08;-13.40;97.20
64226;DHT22;50545;56.064;26.178;2024-01-06T13:07:36;-13.50;97.00
64226;DHT22;50545;56.064;26.178;2024-01-06T13:10:04;-13.70;96.40
64226;DHT22;50545;56.064;26.178;2024-01-06T13:12:32;-13.80;96.20
64226;DHT22;50545;56.064;26.178;2024-01-06T13:15:00;-13.90;96.10
64226;DHT22;50545;56.064;26.178;2024-01-06T13:17:28;-14.10;96.20
64226;DHT22;50545;56.064;26.178;2024-01-06T13:19:55;-14.20;96.20
64226;DHT22;50545;56.064;26.178;2024-01-06T13:22:23;-14.30;96.40
64226;DHT22;50545;56.064;26.178;2024-01-06T13:24:52;-14.50;96.60
64226;DHT22;50545;56.064;26.178;2024-01-06T13:27:20;-14.60;96.80
64226;DHT22;50545;56.064;26.178;2024-01-06T13:29:48;-14.80;96.90
64226;DHT22;50545;56.064;26.178;2024-01-06T13:32:15;-14.90;97.10
64226;DHT22;50545;56.064;26.178;2024-01-06T13:34:43;-15.00;97.40
64226;DHT22;50545;56.064;26.178;2024-01-06T13:37:11;-15.10;97.60
64226;DHT22;50545;56.064;26.178;2024-01-06T13:39:38;-15.20;97.80
64226;DHT22;50545;56.064;26.178;2024-01-06T13:42:05;-15.30;98.00
64226;DHT22;50545;56.064;26.178;2024-01-06T13:44:33;-15.40;98.50
64226;DHT22;50545;56.064;26.178;2024-01-06T13:47:01;-15.40;98.70
64226;DHT22;50545;56.064;26.178;2024-01-06T13:49:28;-15.50;99.00
64226;DHT22;50545;56.064;26.178;2024-01-06T13:51:56;-15.60;99.50
64226;DHT22;50545;56.064;26.178;2024-01-06T13:54:25;-15.60;99.90
64226;DHT22;50545;56.064;26.178;2024-01-06T13:56:52;-15.70;99.90
64226;DHT22;50545;56.064;26.178;2024-01-06T13:59:19;-15.80;99.90
64226;DHT22;50545;56.064;26.178;2024-01-06T14:01:47;-15.80;99.90
64226;DHT22;50545;56.064;26.178;2024-01-06T14:04:15;-15.90;99.90
64226;DHT22;50545;56.064;26.178;2024-01-06T14:06:44;-16.00;99.90
64226;DHT22;50545;56.064;26.178;2024-01-06T14:09:15;-16.10;99.90
64226;DHT22;50545;56.064;26.178;2024-01-06T14:11:42;-16.20;99.90
64226;DHT22;50545;56.064;26.178;2024-01-06T14:14:10;-16.30;99.90
64226;DHT22;50545;56.064;26.178;2024-01-06T14:16:37;-16.30;99.90
64226;DHT22;50545;56.064;26.178;2024-01-06T14:19:05;-16.40;99.90
64226;DHT22;50545;56.064;26.178;2024-01-06T14:21:32;-16.50;99.90
64226;DHT22;50545;56.064;26.178;2024-01-06T14:24:00;-16.60;99.90
64226;DHT22;50545;56.064;26.178;2024-01-06T14:26:28;-16.60;99.90
64226;DHT22;50545;56.064;26.178;2024-01-06T14:28:56;-16.70;99.90
64226;DHT22;50545;56.064;26.178;2024-01-06T14:31:25;-16.80;99.90
64226;DHT22;50545;56.064;26.178;2024-01-06T14:33:56;-16.80;99.90
64226;DHT22;50545;56.064;26.178;2024-01-06T14:36:27;-16.90;99.90
64226;DHT22;50545;56.064;26.178;2024-01-06T14:38:54;-17.00;99.90
64226;DHT22;50545;56.064;26.178;2024-01-06T14:41:22;-17.10;99.90
64226;DHT22;50545;56.064;26.178;2024-01-06T14:43:49;-17.20;99.90
64226;DHT22;50545;56.064;26.178;2024-01-06T14:46:17;-17.30;99.90
64226;DHT22;50545;56.064;26.178;2024-01-06T14:48:45;-17.30;99.90
64226;DHT22;50545;56.064;26.178;2024-01-06T14:51:13;-17.40;99.90
64226;DHT22;50545;56.064;26.178;2024-01-06T14:53:41;-17.40;99.90
64226;DHT22;50545;56.064;26.178;2024-01-06T14:56:08;-17.40;99.90
64226;DHT22;50545;56.064;26.178;2024-01-06T14:58:35;-17.50;99.90
64226;DHT22;50545;56.064;26.178;2024-01-06T15:01:05;-17.50;99.90
64226;DHT22;50545;56.064;26.178;2024-01-06T15:03:33;-17.60;99.90
64226;DHT22;50545;56.064;26.178;2024-01-06T15:06:00;-17.60;99.90
64226;DHT22;50545;56.064;26.178;2024-01-06T15:08:28;-17.70;99.90
64226;DHT22;50545;56.064;26.178;2024-01-06T15:10:56;-17.70;99.90